DTTF/GAF METAR and TAF weather

Enter ICAO airport designator
Station Type Date Time Source
DTTF METAR 2018/12/10 18:00 UTC NOAA

DTTF 101800Z 34007KT 320V020 CAVOK 16/01 Q1023 NOSIG


Station Type Date Time Source
DTTF Decoded METAR 2018/12/10 18:00 UTC NOAA

Gafsa, Tunisia (DTTF) 34-25N 008-49E 314M
Dec 10, 2018 - 01:00 PM EST / 2018.12.10 1800 UTC
Wind: from the NNW (340 degrees) at 8 MPH (7 KT) (direction variable):0
Visibility: greater than 7 mile(s):0
Temperature: 60 F (16 C)
Dew Point: 33 F (1 C)
Relative Humidity: 36%
Pressure (altimeter): 30.21 in. Hg (1023 hPa)
ob: DTTF 101800Z 34007KT 320V020 CAVOK 16/01 Q1023 NOSIG
cycle: 18

Station Type Date Time Source
DTTF TAF 2018/07/22 13:33 UTC NOAA

TAF DTTF 221200Z 2213/2322 22010KT 7000 NSC PROB30
TEMPO 2216/2220 4000 -TSRA FEW026CB


Example: see airport list